Laniel, Canada
Current Conditions -  °F | °C
As of 2:38 AM on Saturday 27 Dec 2014 (Local Time) from CYYB Reporting Station
Moderate Fog Moderate Fog  
Wind Chill: 34°   Ceiling: 200
Heat Index: 34°   Visibility: 0.37mi
Dew Point: 34°   Wind: 3mph
Humidity: 100%   Direction: 230°SW
Pressure: 30.05"   Gusts: NA
Location:  47.03°N, 79.27°W
Report Text: CYYB 270738Z AUTO 23003KT 3/8SM R08/2400FT/N FG VV002 01/01 A3005 RMK SLP191
Loading
Personal Weather Stations






























Interactive Weather Map New forecast layout! Learn more

10-Day Weather Forecast

Advertisements
Track Severe Weather on mobile